Time;durP1;ratioP1;P1;durP2;ratioP2;P2;SDS_P1;SDS_P2;PMS_P1;PMS_P2;Temp;Humidity;BMP_temperature;BMP_pressure;BME280_temperature;BME280_humidity;BME280_pressure;Samples;Min_cycle;Max_cycle;Signal;HPM_P1;HPM_P2
2021/10/18 00:00:18;;;;;;;;;;;7.70;99.90;;;;;;5091176;28;19928;-73
2021/10/18 00:02:44;;;;;;;;;;;7.80;99.90;;;;;;5074517;28;19977;-74
2021/10/18 00:05:13;;;;;;;;;;;7.70;99.90;;;;;;5073615;28;19924;-74
2021/10/18 00:07:46;;;;;;;;;;;7.70;99.90;;;;;;5091403;28;19924;-74
2021/10/18 00:10:18;;;;;;;;;;;7.70;99.90;;;;;;5092452;28;19928;-73
2021/10/18 00:12:50;;;;;;;;;;;7.70;99.90;;;;;;5086338;28;19971;-73
2021/10/18 00:15:17;;;;;;;;;;;7.70;99.90;;;;;;5074210;28;19925;-74
2021/10/18 00:17:44;;;;;;;;;;;7.70;99.90;;;;;;5088718;28;21159;-73
2021/10/18 00:20:12;;;;;;;;;;;7.70;99.90;;;;;;5090859;28;19993;-73
2021/10/18 00:22:38;;;;;;;;;;;7.70;99.90;;;;;;5090844;28;19963;-73
2021/10/18 00:25:06;;;;;;;;;;;7.70;99.90;;;;;;5090651;28;19977;-73
2021/10/18 00:27:38;;;;;;;;;;;7.70;99.90;;;;;;5091620;28;19924;-73
2021/10/18 00:30:16;;;;;;;;;;;7.70;99.90;;;;;;5091504;28;19924;-73
2021/10/18 00:32:43;;;;;;;;;;;7.70;99.90;;;;;;5091383;28;19928;-73
2021/10/18 00:35:15;;;;;;;;;;;7.70;99.90;;;;;;5091007;28;19931;-73
2021/10/18 00:37:42;;;;;;;;;;;7.70;99.90;;;;;;5092818;28;19970;-73
2021/10/18 00:40:15;;;;;;;;;;;7.70;99.90;;;;;;5091670;28;20410;-73
2021/10/18 00:42:42;;;;;;;;;;;7.70;99.90;;;;;;5091282;28;19924;-73
2021/10/18 00:45:14;;;;;;;;;;;7.70;99.90;;;;;;5090882;28;19932;-73
2021/10/18 00:47:45;;;;;;;;;;;7.80;99.90;;;;;;5092620;28;19924;-73
2021/10/18 00:50:17;;;;;;;;;;;7.70;99.90;;;;;;5091491;28;19931;-73
2021/10/18 00:52:49;;;;;;;;;;;7.70;99.90;;;;;;5091213;28;19932;-73
2021/10/18 00:55:17;;;;;;;;;;;7.70;99.90;;;;;;5090892;28;20432;-73
2021/10/18 00:57:50;;;;;;;;;;;7.80;99.90;;;;;;5091178;28;20352;-73
2021/10/18 01:00:22;;;;;;;;;;;7.70;99.90;;;;;;5091854;28;20362;-73
2021/10/18 01:02:49;;;;;;;;;;;7.80;99.90;;;;;;5090843;28;20518;-73
2021/10/18 01:05:16;;;;;;;;;;;7.80;99.90;;;;;;5091442;28;19971;-73
2021/10/18 01:07:49;;;;;;;;;;;7.80;99.90;;;;;;5090338;28;19924;-73
2021/10/18 01:10:17;;;;;;;;;;;7.80;99.90;;;;;;5090396;28;19924;-73
2021/10/18 01:12:43;;;;;;;;;;;7.70;99.90;;;;;;5090262;28;19924;-73
2021/10/18 01:15:10;;;;;;;;;;;7.70;99.90;;;;;;5090611;28;20348;-73
2021/10/18 01:17:37;;;;;;;;;;;7.70;99.90;;;;;;5090911;28;19924;-73
2021/10/18 01:20:10;;;;;;;;;;;7.70;99.90;;;;;;5092024;28;19924;-73
2021/10/18 01:22:37;;;;;;;;;;;7.70;99.90;;;;;;5090619;28;19928;-73
2021/10/18 01:25:09;;;;;;;;;;;7.60;99.90;;;;;;5090067;28;20348;-73
2021/10/18 01:27:36;;;;;;;;;;;7.60;99.90;;;;;;5090433;28;19924;-73
2021/10/18 01:30:03;;;;;;;;;;;7.70;99.90;;;;;;5091722;28;19924;-73
2021/10/18 01:32:30;;;;;;;;;;;7.70;99.90;;;;;;5090426;28;19924;-73
2021/10/18 01:35:05;;;;;;;;;;;7.70;99.90;;;;;;5089859;28;19924;-73
2021/10/18 01:37:37;;;;;;;;;;;7.70;99.90;;;;;;5092819;28;19956;-73
2021/10/18 01:40:10;;;;;;;;;;;7.70;99.90;;;;;;5096156;28;19924;-73
2021/10/18 01:42:43;;;;;;;;;;;7.70;99.90;;;;;;5094954;28;19931;-73
2021/10/18 01:45:15;;;;;;;;;;;7.70;99.90;;;;;;5094583;28;20049;-73
2021/10/18 01:47:47;;;;;;;;;;;7.60;99.90;;;;;;5096121;28;19932;-73
2021/10/18 01:50:21;;;;;;;;;;;7.60;99.90;;;;;;5094664;28;19927;-73
2021/10/18 01:52:53;;;;;;;;;;;7.60;99.90;;;;;;5094812;28;19928;-73
2021/10/18 01:55:25;;;;;;;;;;;7.70;99.90;;;;;;5094426;28;19935;-73
2021/10/18 01:57:57;;;;;;;;;;;7.70;99.90;;;;;;5094552;28;20400;-73
2021/10/18 02:00:23;;;;;;;;;;;7.80;99.90;;;;;;5077601;28;19924;-73
2021/10/18 02:02:56;;;;;;;;;;;7.80;99.90;;;;;;5078445;28;20012;-73
2021/10/18 02:05:27;;;;;;;;;;;7.80;99.90;;;;;;5094166;28;19970;-73
2021/10/18 02:07:59;;;;;;;;;;;7.90;99.90;;;;;;5095626;28;20348;-73
2021/10/18 02:10:31;;;;;;;;;;;7.80;99.90;;;;;;5078127;28;19931;-73
2021/10/18 02:13:03;;;;;;;;;;;7.80;99.90;;;;;;5094399;28;19924;-73
2021/10/18 02:15:36;;;;;;;;;;;7.80;99.90;;;;;;5093924;28;19970;-73
2021/10/18 02:18:07;;;;;;;;;;;7.80;99.90;;;;;;5094502;28;20351;-73
2021/10/18 02:20:39;;;;;;;;;;;7.80;99.90;;;;;;5095449;28;19931;-73
2021/10/18 02:23:06;;;;;;;;;;;7.80;99.90;;;;;;5093865;28;20379;-73
2021/10/18 02:25:38;;;;;;;;;;;7.80;99.90;;;;;;5093821;28;20299;-73
2021/10/18 02:28:10;;;;;;;;;;;7.70;99.90;;;;;;5095324;28;19931;-73
2021/10/18 02:30:36;;;;;;;;;;;7.70;99.90;;;;;;5094035;28;19928;-73
2021/10/18 02:33:08;;;;;;;;;;;7.70;99.90;;;;;;5095135;28;19947;-73
2021/10/18 02:35:40;;;;;;;;;;;7.70;99.90;;;;;;5094681;28;20409;-73
2021/10/18 02:38:07;;;;;;;;;;;7.70;99.90;;;;;;5093985;28;20756;-73
2021/10/18 02:40:38;;;;;;;;;;;7.70;99.90;;;;;;5093671;28;19924;-73
2021/10/18 02:43:10;;;;;;;;;;;7.70;99.90;;;;;;5093810;28;19955;-73
2021/10/18 02:45:42;;;;;;;;;;;7.60;99.90;;;;;;5093459;28;19931;-73
2021/10/18 02:48:12;;;;;;;;;;;7.60;99.90;;;;;;5094263;28;19931;-73
2021/10/18 02:50:39;;;;;;;;;;;7.60;99.90;;;;;;5093623;28;19931;-73
2021/10/18 02:53:11;;;;;;;;;;;7.60;99.90;;;;;;5093635;28;20353;-73
2021/10/18 02:55:37;;;;;;;;;;;7.60;99.90;;;;;;5127151;27;20405;-73
2021/10/18 02:58:04;;;;;;;;;;;7.60;99.90;;;;;;5094710;28;19924;-73
2021/10/18 03:00:31;;;;;;;;;;;7.70;99.90;;;;;;5093218;28;19928;-73
2021/10/18 03:02:58;;;;;;;;;;;7.70;99.90;;;;;;5094566;28;19931;-73
2021/10/18 03:05:30;;;;;;;;;;;7.70;99.90;;;;;;5094136;28;19924;-73
2021/10/18 03:08:02;;;;;;;;;;;7.70;99.90;;;;;;5093375;28;19974;-73
2021/10/18 03:10:29;;;;;;;;;;;7.70;99.90;;;;;;5093216;28;20309;-73
2021/10/18 03:13:01;;;;;;;;;;;7.70;99.90;;;;;;5093210;28;19931;-73
2021/10/18 03:15:33;;;;;;;;;;;7.70;99.90;;;;;;5092895;28;19931;-73
2021/10/18 03:18:05;;;;;;;;;;;7.70;99.90;;;;;;5094372;28;20390;-73
2021/10/18 03:20:36;;;;;;;;;;;7.70;99.90;;;;;;5092844;28;20340;-73
2021/10/18 03:23:08;;;;;;;;;;;7.70;99.90;;;;;;5094181;28;19932;-73
2021/10/18 03:25:35;;;;;;;;;;;7.70;99.90;;;;;;5093655;28;19928;-73
2021/10/18 03:28:07;;;;;;;;;;;7.70;99.90;;;;;;5092949;28;19931;-73
2021/10/18 03:30:39;;;;;;;;;;;7.60;99.90;;;;;;5092793;28;19924;-73
2021/10/18 03:33:11;;;;;;;;;;;7.60;99.90;;;;;;5092750;28;19924;-73
2021/10/18 03:35:43;;;;;;;;;;;7.60;99.90;;;;;;5092631;28;19924;-73
2021/10/18 03:38:15;;;;;;;;;;;7.60;99.90;;;;;;5092954;28;20252;-73
2021/10/18 03:40:42;;;;;;;;;;;7.60;99.90;;;;;;5093821;28;20338;-73
2021/10/18 03:43:13;;;;;;;;;;;7.60;99.90;;;;;;5092693;28;19932;-73
2021/10/18 03:45:45;;;;;;;;;;;7.60;99.90;;;;;;5091990;28;19981;-73
2021/10/18 03:48:12;;;;;;;;;;;7.60;99.90;;;;;;5092505;28;19924;-73
2021/10/18 03:50:44;;;;;;;;;;;7.60;99.90;;;;;;5092255;28;19969;-73
2021/10/18 03:53:11;;;;;;;;;;;7.60;99.90;;;;;;5074951;28;19994;-73
2021/10/18 03:55:42;;;;;;;;;;;7.60;99.90;;;;;;5091175;28;19924;-73
2021/10/18 03:58:14;;;;;;;;;;;7.60;99.90;;;;;;5091907;28;19928;-73
2021/10/18 04:00:48;;;;;;;;;;;7.70;99.90;;;;;;5091907;28;19935;-73
2021/10/18 04:03:20;;;;;;;;;;;7.70;99.90;;;;;;5092815;28;20205;-73
2021/10/18 04:05:47;;;;;;;;;;;7.70;99.90;;;;;;5074377;28;19928;-74
2021/10/18 04:08:23;;;;;;;;;;;7.70;99.90;;;;;;5091582;28;19967;-73
2021/10/18 04:10:54;;;;;;;;;;;7.70;99.90;;;;;;5091250;28;19930;-74
2021/10/18 04:13:21;;;;;;;;;;;7.70;99.90;;;;;;5090797;28;19925;-73
2021/10/18 04:15:53;;;;;;;;;;;7.70;99.90;;;;;;5090268;28;19955;-73
2021/10/18 04:18:21;;;;;;;;;;;7.80;99.90;;;;;;5090606;28;19924;-74
2021/10/18 04:20:53;;;;;;;;;;;7.70;99.90;;;;;;5078790;28;19924;-73
2021/10/18 04:23:28;;;;;;;;;;;7.70;99.90;;;;;;5090382;28;19924;-73
2021/10/18 04:25:55;;;;;;;;;;;7.70;99.90;;;;;;5090164;28;19924;-73
2021/10/18 04:28:27;;;;;;;;;;;7.70;99.90;;;;;;5090694;28;19928;-73
2021/10/18 04:30:59;;;;;;;;;;;7.70;99.90;;;;;;5090468;28;20314;-73
2021/10/18 04:33:30;;;;;;;;;;;7.60;99.90;;;;;;5086763;28;20379;-73
2021/10/18 04:35:57;;;;;;;;;;;7.60;99.90;;;;;;5090189;28;20379;-74
2021/10/18 04:38:29;;;;;;;;;;;7.60;99.90;;;;;;5090433;28;19924;-73
2021/10/18 04:41:01;;;;;;;;;;;7.60;99.90;;;;;;5090736;28;19940;-74
2021/10/18 04:43:32;;;;;;;;;;;7.60;99.90;;;;;;5090671;28;19924;-73
2021/10/18 04:46:04;;;;;;;;;;;7.60;99.90;;;;;;5076080;28;20375;-73
2021/10/18 04:48:36;;;;;;;;;;;7.50;99.90;;;;;;5068990;28;19932;-73
2021/10/18 04:51:08;;;;;;;;;;;7.40;99.90;;;;;;5070862;28;20023;-74
2021/10/18 04:53:40;;;;;;;;;;;7.30;99.90;;;;;;5070537;28;19925;-73
2021/10/18 04:56:06;;;;;;;;;;;7.30;99.90;;;;;;5070289;28;19970;-73
2021/10/18 04:58:38;;;;;;;;;;;7.40;99.90;;;;;;5070302;28;19924;-74
2021/10/18 05:01:10;;;;;;;;;;;7.40;99.90;;;;;;5070425;28;19932;-74
2021/10/18 05:03:42;;;;;;;;;;;7.40;99.90;;;;;;5070484;28;20391;-73
2021/10/18 05:06:13;;;;;;;;;;;7.50;99.90;;;;;;5072132;28;19985;-74
2021/10/18 05:08:40;;;;;;;;;;;7.50;99.90;;;;;;5072377;28;19947;-74
2021/10/18 05:11:12;;;;;;;;;;;7.50;99.90;;;;;;5071725;28;19932;-74
2021/10/18 05:13:44;;;;;;;;;;;7.40;99.90;;;;;;5069656;28;20318;-74
2021/10/18 05:16:15;;;;;;;;;;;7.40;99.90;;;;;;5070331;28;20406;-74
2021/10/18 05:18:42;;;;;;;;;;;7.50;99.90;;;;;;5069888;28;20342;-74
2021/10/18 05:21:14;;;;;;;;;;;7.50;99.90;;;;;;5070058;28;19929;-74
2021/10/18 05:23:41;;;;;;;;;;;7.40;99.90;;;;;;5070093;28;19925;-74
2021/10/18 05:26:08;;;;;;;;;;;7.50;99.90;;;;;;5069129;28;20315;-74
2021/10/18 05:28:39;;;;;;;;;;;7.40;99.90;;;;;;5069725;28;19928;-73
2021/10/18 05:31:11;;;;;;;;;;;7.40;99.90;;;;;;5069690;28;19924;-74
2021/10/18 05:33:43;;;;;;;;;;;7.40;99.90;;;;;;5069722;28;20356;-73
2021/10/18 05:36:10;;;;;;;;;;;7.40;99.90;;;;;;5069113;28;19932;-74
2021/10/18 05:38:37;;;;;;;;;;;7.40;99.90;;;;;;5069735;28;19982;-74
2021/10/18 05:41:08;;;;;;;;;;;7.40;99.90;;;;;;5069899;28;19939;-74
2021/10/18 05:43:35;;;;;;;;;;;7.40;99.90;;;;;;5082469;28;19924;-73
2021/10/18 05:46:02;;;;;;;;;;;7.40;99.90;;;;;;5069010;28;19931;-74
2021/10/18 05:48:29;;;;;;;;;;;7.40;99.90;;;;;;5060602;28;20000;-73
2021/10/18 05:50:55;;;;;;;;;;;7.40;99.90;;;;;;5107231;28;20382;-73
2021/10/18 05:53:27;;;;;;;;;;;7.30;99.90;;;;;;5069330;28;19928;-73
2021/10/18 05:55:59;;;;;;;;;;;7.40;99.90;;;;;;5069161;28;20487;-73
2021/10/18 05:58:31;;;;;;;;;;;7.30;99.90;;;;;;5069381;28;19928;-73
2021/10/18 06:01:03;;;;;;;;;;;7.30;99.90;;;;;;5071082;28;19960;-74
2021/10/18 06:03:36;;;;;;;;;;;7.20;99.90;;;;;;5053303;28;19947;-73
2021/10/18 06:06:10;;;;;;;;;;;7.30;99.90;;;;;;5052613;28;19967;-73
2021/10/18 06:08:42;;;;;;;;;;;7.30;99.90;;;;;;5070490;28;19924;-73
2021/10/18 06:11:09;;;;;;;;;;;7.40;99.90;;;;;;5059601;28;19929;-73
2021/10/18 06:13:40;;;;;;;;;;;7.40;99.90;;;;;;5056819;28;20503;-73
2021/10/18 06:16:12;;;;;;;;;;;7.50;99.90;;;;;;5065088;28;19924;-73
2021/10/18 06:18:39;;;;;;;;;;;7.50;99.90;;;;;;5083272;28;19928;-73
2021/10/18 06:21:06;;;;;;;;;;;7.50;99.90;;;;;;5066220;28;19924;-73
2021/10/18 06:23:33;;;;;;;;;;;7.50;99.90;;;;;;5070467;28;20369;-73
2021/10/18 06:26:05;;;;;;;;;;;7.60;99.90;;;;;;5075735;28;19973;-74
2021/10/18 06:28:40;;;;;;;;;;;7.60;99.90;;;;;;5087358;28;20001;-74
2021/10/18 06:31:11;;;;;;;;;;;7.60;99.90;;;;;;5072590;28;19928;-73
2021/10/18 06:33:38;;;;;;;;;;;7.60;99.90;;;;;;5072704;28;19978;-74
2021/10/18 06:36:05;;;;;;;;;;;7.60;99.90;;;;;;5071826;28;19933;-73
2021/10/18 06:38:37;;;;;;;;;;;7.50;99.90;;;;;;5054974;28;19932;-73
2021/10/18 06:41:09;;;;;;;;;;;7.50;99.90;;;;;;5069523;28;19932;-73
2021/10/18 06:43:42;;;;;;;;;;;7.40;99.90;;;;;;5072527;28;20022;-74
2021/10/18 06:46:14;;;;;;;;;;;7.50;99.90;;;;;;5072324;28;20040;-73
2021/10/18 06:48:41;;;;;;;;;;;7.50;99.90;;;;;;5068756;28;20464;-73
2021/10/18 06:51:12;;;;;;;;;;;7.50;99.90;;;;;;5071041;28;19990;-73
2021/10/18 06:53:47;;;;;;;;;;;7.50;99.90;;;;;;5070941;28;19939;-73
2021/10/18 06:56:14;;;;;;;;;;;7.50;99.90;;;;;;5054579;28;19931;-73
2021/10/18 06:58:41;;;;;;;;;;;7.50;99.90;;;;;;5069105;28;19931;-73
2021/10/18 07:01:12;;;;;;;;;;;7.50;99.90;;;;;;5051043;28;19925;-73
2021/10/18 07:03:44;;;;;;;;;;;7.50;99.90;;;;;;5087643;28;19924;-73
2021/10/18 07:06:11;;;;;;;;;;;7.50;99.90;;;;;;5087190;28;19971;-73
2021/10/18 07:08:38;;;;;;;;;;;7.60;99.90;;;;;;5069043;28;20322;-73
2021/10/18 07:11:09;;;;;;;;;;;7.60;99.90;;;;;;5071520;28;19932;-73
2021/10/18 07:13:36;;;;;;;;;;;7.50;99.90;;;;;;5059722;28;19932;-73
2021/10/18 07:16:04;;;;;;;;;;;7.60;99.90;;;;;;5087735;28;19928;-73
2021/10/18 07:18:30;;;;;;;;;;;7.70;99.90;;;;;;5070671;28;19925;-73
2021/10/18 07:20:57;;;;;;;;;;;7.70;99.90;;;;;;5054442;28;19970;-73
2021/10/18 07:23:29;;;;;;;;;;;7.60;99.90;;;;;;5089168;28;19925;-73
2021/10/18 07:25:56;;;;;;;;;;;7.60;99.90;;;;;;5073214;28;19925;-73
2021/10/18 07:28:28;;;;;;;;;;;7.60;99.90;;;;;;5083787;28;19928;-73
2021/10/18 07:30:57;;;;;;;;;;;7.60;99.90;;;;;;5070046;28;19924;-74
2021/10/18 07:33:29;;;;;;;;;;;7.60;99.90;;;;;;5066728;28;20409;-73
2021/10/18 07:36:02;;;;;;;;;;;7.70;99.90;;;;;;5069257;28;20399;-73
2021/10/18 07:38:37;;;;;;;;;;;7.70;99.90;;;;;;5072093;28;19978;-73
2021/10/18 07:41:09;;;;;;;;;;;7.70;99.90;;;;;;5067256;28;20030;-73
2021/10/18 07:43:41;;;;;;;;;;;7.60;99.90;;;;;;5067147;28;19932;-73
2021/10/18 07:46:13;;;;;;;;;;;7.70;99.90;;;;;;5065819;28;19924;-74
2021/10/18 07:48:45;;;;;;;;;;;7.70;99.90;;;;;;5073106;28;20387;-73
2021/10/18 07:51:11;;;;;;;;;;;7.70;99.90;;;;;;5087609;28;20379;-73
2021/10/18 07:53:43;;;;;;;;;;;7.70;99.90;;;;;;5069995;28;19928;-73
2021/10/18 07:56:15;;;;;;;;;;;7.80;99.90;;;;;;5087546;28;20346;-73
2021/10/18 07:58:47;;;;;;;;;;;7.80;99.90;;;;;;5070415;28;19986;-73
2021/10/18 08:01:18;;;;;;;;;;;7.90;99.90;;;;;;5068938;28;19925;-73
2021/10/18 08:03:50;;;;;;;;;;;7.90;99.90;;;;;;5079999;28;19977;-73
2021/10/18 08:06:22;;;;;;;;;;;8.00;99.90;;;;;;5069500;28;19924;-73
2021/10/18 08:08:55;;;;;;;;;;;7.90;99.90;;;;;;5070619;28;19924;-74
2021/10/18 08:11:22;;;;;;;;;;;7.90;99.90;;;;;;5082585;28;19924;-73
2021/10/18 08:13:49;;;;;;;;;;;7.80;99.90;;;;;;5080264;28;19932;-73
2021/10/18 08:16:21;;;;;;;;;;;7.90;99.90;;;;;;5064858;28;19991;-73
2021/10/18 08:18:48;;;;;;;;;;;8.00;99.90;;;;;;5070871;28;19936;-73
2021/10/18 08:21:21;;;;;;;;;;;8.00;99.90;;;;;;5069923;28;19924;-73
2021/10/18 08:23:50;;;;;;;;;;;8.10;99.90;;;;;;5071904;28;19970;-73
2021/10/18 08:26:21;;;;;;;;;;;8.20;99.90;;;;;;5071608;28;20383;-73
2021/10/18 08:28:53;;;;;;;;;;;8.20;99.90;;;;;;5070436;28;19925;-73
2021/10/18 08:31:27;;;;;;;;;;;8.20;99.90;;;;;;5071004;28;20307;-73
2021/10/18 08:33:58;;;;;;;;;;;8.20;99.90;;;;;;5058770;28;19928;-74
2021/10/18 08:36:35;;;;;;;;;;;8.30;99.90;;;;;;5070112;28;19924;-73
2021/10/18 08:41:52;;;;;;;;;;;8.30;99.90;;;;;;5069451;28;19924;-73
2021/10/18 08:44:19;;;;;;;;;;;8.30;99.90;;;;;;5051063;28;19932;-73
2021/10/18 08:46:52;;;;;;;;;;;8.30;99.90;;;;;;5052960;28;19924;-73
2021/10/18 08:49:20;;;;;;;;;;;8.30;99.90;;;;;;5069924;28;19925;-73
2021/10/18 08:51:52;;;;;;;;;;;8.20;99.90;;;;;;5070489;28;19931;-73
2021/10/18 08:54:24;;;;;;;;;;;8.10;99.90;;;;;;5070592;28;19939;-73
2021/10/18 08:56:50;;;;;;;;;;;8.00;99.90;;;;;;5070159;28;19932;-73
2021/10/18 08:59:26;;;;;;;;;;;8.00;99.90;;;;;;5069575;28;20383;-73
2021/10/18 09:01:54;;;;;;;;;;;8.10;99.90;;;;;;5069910;28;19924;-73
2021/10/18 09:04:31;;;;;;;;;;;8.10;99.90;;;;;;5070278;28;19924;-74
2021/10/18 09:07:02;;;;;;;;;;;8.10;99.90;;;;;;5086477;28;19931;-73
2021/10/18 09:09:45;;;;;;;;;;;8.20;99.90;;;;;;5053996;28;19924;-73
2021/10/18 09:12:28;;;;;;;;;;;8.30;99.90;;;;;;5071214;28;19924;-74
2021/10/18 09:15:20;;;;;;;;;;;8.40;99.90;;;;;;5073313;28;20391;-73
2021/10/18 09:17:51;;;;;;;;;;;8.40;99.90;;;;;;5079846;28;19932;-74
2021/10/18 09:20:26;;;;;;;;;;;8.30;99.90;;;;;;5065305;28;20586;-74
2021/10/18 09:22:54;;;;;;;;;;;8.30;99.90;;;;;;5067393;28;19929;-73
2021/10/18 09:25:41;;;;;;;;;;;8.30;99.90;;;;;;5082600;28;19978;-73
2021/10/18 09:28:11;;;;;;;;;;;8.30;99.90;;;;;;5067599;28;19928;-73
2021/10/18 09:30:42;;;;;;;;;;;8.20;99.90;;;;;;5069578;28;19925;-73
2021/10/18 09:33:21;;;;;;;;;;;8.20;99.90;;;;;;5103174;28;19931;-73
2021/10/18 09:35:48;;;;;;;;;;;8.20;99.90;;;;;;5070884;28;19932;-73
2021/10/18 09:38:21;;;;;;;;;;;8.20;99.90;;;;;;5077257;28;20452;-73
2021/10/18 09:40:54;;;;;;;;;;;8.20;99.90;;;;;;5049540;28;19960;-73
2021/10/18 09:46:07;;;;;;;;;;;8.40;99.90;;;;;;5075142;28;19928;-73
2021/10/18 10:51:21;;;;;;;;;;;9.30;99.90;;;;;;5086400;28;19924;-73
2021/10/18 10:53:54;;;;;;;;;;;9.40;99.90;;;;;;5079006;28;19931;-73
2021/10/18 10:56:26;;;;;;;;;;;9.50;99.90;;;;;;5092350;28;19928;-73
2021/10/18 10:59:01;;;;;;;;;;;9.60;99.90;;;;;;5061339;28;19924;-73
2021/10/18 11:01:39;;;;;;;;;;;9.60;99.90;;;;;;5085483;28;19974;-73
2021/10/18 11:04:35;;;;;;;;;;;9.60;99.90;;;;;;5072355;28;19932;-73
2021/10/18 11:07:07;;;;;;;;;;;9.70;99.90;;;;;;5055395;28;20379;-73
2021/10/18 11:09:39;;;;;;;;;;;9.70;99.90;;;;;;5071798;28;19930;-73
2021/10/18 11:12:17;;;;;;;;;;;9.80;99.90;;;;;;5056527;28;19931;-73
2021/10/18 11:15:07;;;;;;;;;;;9.70;99.90;;;;;;5071929;28;20649;-73
2021/10/18 11:17:36;;;;;;;;;;;9.70;99.90;;;;;;5072208;28;20383;-73
2021/10/18 11:20:06;;;;;;;;;;;9.70;99.90;;;;;;5073846;28;20334;-73
2021/10/18 11:22:37;;;;;;;;;;;9.70;99.90;;;;;;5055464;28;19924;-73
2021/10/18 11:25:17;;;;;;;;;;;9.80;99.90;;;;;;5071896;28;19936;-73
2021/10/18 11:27:53;;;;;;;;;;;9.70;99.90;;;;;;5073323;28;19932;-73
2021/10/18 11:30:26;;;;;;;;;;;9.60;99.90;;;;;;5056070;28;19928;-73
2021/10/18 11:32:54;;;;;;;;;;;9.60;99.90;;;;;;5052108;28;20003;-73
2021/10/18 11:35:27;;;;;;;;;;;9.60;99.90;;;;;;5051800;28;19978;-73
2021/10/18 11:38:02;;;;;;;;;;;9.60;99.90;;;;;;5086232;28;20345;-73
2021/10/18 11:40:46;;;;;;;;;;;9.70;99.90;;;;;;5066728;28;19924;-73
2021/10/18 11:43:21;;;;;;;;;;;9.70;99.90;;;;;;5068903;28;20315;-73
2021/10/18 11:45:50;;;;;;;;;;;9.80;99.90;;;;;;5054225;28;19928;-73
2021/10/18 11:48:23;;;;;;;;;;;9.90;99.90;;;;;;5072160;28;19924;-73
2021/10/18 11:51:04;;;;;;;;;;;10.00;99.90;;;;;;5071188;28;19932;-73
2021/10/18 11:53:40;;;;;;;;;;;10.00;99.90;;;;;;5071243;28;19925;-73
2021/10/18 11:56:09;;;;;;;;;;;10.10;99.90;;;;;;5070011;28;19929;-73
2021/10/18 11:58:41;;;;;;;;;;;10.10;99.90;;;;;;5071291;28;19924;-73
2021/10/18 12:01:15;;;;;;;;;;;10.10;99.90;;;;;;5105145;28;19924;-73
2021/10/18 12:03:47;;;;;;;;;;;10.20;99.90;;;;;;5072439;28;19978;-74
2021/10/18 12:06:18;;;;;;;;;;;10.20;99.90;;;;;;5067745;28;20363;-73
2021/10/18 12:08:52;;;;;;;;;;;10.30;99.90;;;;;;5070991;28;19931;-73
2021/10/18 12:11:27;;;;;;;;;;;10.40;99.90;;;;;;5070135;28;19978;-73
2021/10/18 12:14:02;;;;;;;;;;;10.30;99.90;;;;;;5088028;28;19963;-73
2021/10/18 12:16:29;;;;;;;;;;;10.40;99.90;;;;;;5070816;28;19978;-73
2021/10/18 12:19:01;;;;;;;;;;;10.40;99.90;;;;;;5071359;28;19925;-73
2021/10/18 12:21:32;;;;;;;;;;;10.50;99.90;;;;;;5069756;28;19937;-74
2021/10/18 12:24:11;;;;;;;;;;;10.60;99.90;;;;;;5071156;28;20387;-73
2021/10/18 12:26:46;;;;;;;;;;;10.70;99.90;;;;;;5072389;28;19924;-73
2021/10/18 12:29:14;;;;;;;;;;;10.70;99.90;;;;;;5070660;28;20283;-73
2021/10/18 12:31:41;;;;;;;;;;;10.70;99.90;;;;;;5052579;28;19924;-73
2021/10/18 12:34:24;;;;;;;;;;;10.70;99.90;;;;;;5066828;28;20345;-73
2021/10/18 12:36:51;;;;;;;;;;;10.70;99.90;;;;;;5068960;28;20379;-73
2021/10/18 12:39:30;;;;;;;;;;;10.70;99.90;;;;;;5070460;28;19924;-73
2021/10/18 12:42:06;;;;;;;;;;;10.70;99.90;;;;;;5069579;28;19928;-73
2021/10/18 12:44:40;;;;;;;;;;;10.70;99.90;;;;;;5071842;28;19978;-73
2021/10/18 12:47:15;;;;;;;;;;;10.70;99.90;;;;;;5072564;28;19932;-73
2021/10/18 12:49:43;;;;;;;;;;;10.80;99.90;;;;;;5054108;28;19924;-73
2021/10/18 12:52:25;;;;;;;;;;;10.80;99.90;;;;;;5076058;28;19925;-73
2021/10/18 12:54:51;;;;;;;;;;;11.00;99.90;;;;;;5069832;28;19928;-73
2021/10/18 12:57:24;;;;;;;;;;;11.00;99.90;;;;;;5069997;28;20534;-73
2021/10/18 13:00:00;;;;;;;;;;;11.10;99.90;;;;;;5070351;28;19924;-73
2021/10/18 13:02:28;;;;;;;;;;;11.10;99.90;;;;;;5070216;28;19970;-73
2021/10/18 13:05:16;;;;;;;;;;;11.20;99.90;;;;;;5102841;28;19993;-73
2021/10/18 13:07:58;;;;;;;;;;;11.30;99.90;;;;;;5054419;28;19925;-74
2021/10/18 13:10:35;;;;;;;;;;;11.40;99.90;;;;;;5053359;28;19978;-73
2021/10/18 13:13:08;;;;;;;;;;;11.50;99.90;;;;;;5085362;28;19924;-73
2021/10/18 13:15:35;;;;;;;;;;;11.80;99.90;;;;;;5067391;28;19924;-73
2021/10/18 13:18:05;;;;;;;;;;;11.90;99.90;;;;;;5052593;28;19928;-73
2021/10/18 13:20:37;;;;;;;;;;;12.10;99.90;;;;;;5070228;28;19924;-73
2021/10/18 13:23:09;;;;;;;;;;;12.10;99.90;;;;;;5069403;28;19931;-73
2021/10/18 13:25:42;;;;;;;;;;;12.10;99.90;;;;;;5068702;28;19925;-73
2021/10/18 13:28:10;;;;;;;;;;;12.10;99.90;;;;;;5068626;28;19924;-73
2021/10/18 13:30:37;;;;;;;;;;;12.10;99.90;;;;;;5070073;28;19990;-73
2021/10/18 13:33:04;;;;;;;;;;;12.10;99.90;;;;;;5070451;28;19978;-73
2021/10/18 13:35:36;;;;;;;;;;;12.10;99.90;;;;;;5091116;28;20436;-73
2021/10/18 13:38:09;;;;;;;;;;;12.00;99.90;;;;;;5078628;28;19928;-73
2021/10/18 13:40:41;;;;;;;;;;;12.00;99.90;;;;;;5096558;27;19928;-74
2021/10/18 13:43:15;;;;;;;;;;;12.10;99.90;;;;;;5073195;28;19925;-73
2021/10/18 13:45:48;;;;;;;;;;;12.20;99.90;;;;;;5105140;27;19932;-73
2021/10/18 13:48:20;;;;;;;;;;;12.30;99.90;;;;;;5092015;28;20632;-73
2021/10/18 13:50:51;;;;;;;;;;;12.40;99.90;;;;;;5109448;28;19928;-73
2021/10/18 13:53:23;;;;;;;;;;;12.50;99.90;;;;;;5074600;28;19958;-72
2021/10/18 13:55:55;;;;;;;;;;;12.60;99.90;;;;;;5085762;28;19924;-73
2021/10/18 13:58:22;;;;;;;;;;;12.60;99.90;;;;;;5070296;28;19981;-73
2021/10/18 14:00:48;;;;;;;;;;;12.70;99.90;;;;;;5071908;28;19929;-72
2021/10/18 14:03:20;;;;;;;;;;;12.70;99.90;;;;;;5076627;28;20437;-73
2021/10/18 14:05:47;;;;;;;;;;;12.70;99.90;;;;;;5056214;28;19925;-73
2021/10/18 14:08:19;;;;;;;;;;;12.70;99.90;;;;;;5094428;28;19928;-73
2021/10/18 14:10:50;;;;;;;;;;;12.70;99.90;;;;;;5074222;28;20341;-73
2021/10/18 14:13:23;;;;;;;;;;;12.70;99.90;;;;;;5048956;28;19956;-73
2021/10/18 14:15:58;;;;;;;;;;;12.70;99.90;;;;;;5075710;28;20310;-74
2021/10/18 14:18:32;;;;;;;;;;;12.70;99.90;;;;;;5084146;28;20398;-73
2021/10/18 14:21:08;;;;;;;;;;;12.70;99.90;;;;;;5063027;28;19940;-73
2021/10/18 14:23:42;;;;;;;;;;;12.80;99.90;;;;;;5091149;28;19924;-73
2021/10/18 14:26:10;;;;;;;;;;;12.80;99.90;;;;;;5074218;28;20013;-73
2021/10/18 14:28:37;;;;;;;;;;;12.90;99.90;;;;;;5066898;28;20410;-73
2021/10/18 14:31:09;;;;;;;;;;;12.90;99.90;;;;;;5074962;28;19925;-73
2021/10/18 14:33:41;;;;;;;;;;;13.00;99.90;;;;;;5075289;28;19929;-73
2021/10/18 14:36:13;;;;;;;;;;;13.10;99.90;;;;;;5072071;28;19932;-73
2021/10/18 14:38:41;;;;;;;;;;;13.20;99.90;;;;;;5058231;28;19936;-73
2021/10/18 14:41:13;;;;;;;;;;;13.20;99.90;;;;;;5072138;28;19924;-73
2021/10/18 14:43:39;;;;;;;;;;;13.20;99.90;;;;;;5075295;28;20377;-73
2021/10/18 14:46:11;;;;;;;;;;;13.20;99.90;;;;;;5070345;28;20397;-73
2021/10/18 14:48:43;;;;;;;;;;;13.20;99.90;;;;;;5088372;28;19970;-73
2021/10/18 14:51:14;;;;;;;;;;;13.20;99.90;;;;;;5072740;28;19932;-74
2021/10/18 14:53:50;;;;;;;;;;;13.20;99.90;;;;;;5069493;28;20294;-73
2021/10/18 14:56:22;;;;;;;;;;;13.20;99.90;;;;;;5047714;28;20061;-74
2021/10/18 14:58:49;;;;;;;;;;;13.20;99.90;;;;;;5067872;28;20543;-73
2021/10/18 15:01:22;;;;;;;;;;;13.30;99.90;;;;;;5047766;28;20383;-73
2021/10/18 15:03:52;;;;;;;;;;;13.30;99.90;;;;;;5064911;28;20010;-73
2021/10/18 15:06:19;;;;;;;;;;;13.30;99.90;;;;;;5064634;28;19925;-73
2021/10/18 15:08:52;;;;;;;;;;;13.30;99.90;;;;;;5070613;28;19924;-73
2021/10/18 15:11:23;;;;;;;;;;;13.30;99.90;;;;;;5067587;28;19932;-73
2021/10/18 15:13:55;;;;;;;;;;;13.30;99.90;;;;;;5070518;28;19978;-73
2021/10/18 15:16:27;;;;;;;;;;;13.40;99.90;;;;;;5069512;28;20053;-73
2021/10/18 15:18:54;;;;;;;;;;;13.70;99.90;;;;;;5067772;28;20015;-73
2021/10/18 15:21:21;;;;;;;;;;;14.00;99.90;;;;;;5069879;28;19978;-73
2021/10/18 15:23:53;;;;;;;;;;;14.40;99.90;;;;;;5070425;28;19925;-73
2021/10/18 15:26:24;;;;;;;;;;;14.70;99.90;;;;;;5071196;28;19947;-73
2021/10/18 15:28:56;;;;;;;;;;;14.80;99.90;;;;;;5070792;28;20387;-73
2021/10/18 15:31:28;;;;;;;;;;;14.80;99.90;;;;;;5071899;28;19925;-73
2021/10/18 15:33:55;;;;;;;;;;;14.80;99.90;;;;;;5072358;28;20391;-73
2021/10/18 15:36:22;;;;;;;;;;;14.60;99.90;;;;;;5072017;28;19932;-73
2021/10/18 15:38:53;;;;;;;;;;;14.40;99.90;;;;;;5089640;28;19924;-73
2021/10/18 15:41:20;;;;;;;;;;;14.10;99.90;;;;;;5072378;28;20398;-74
2021/10/18 15:43:52;;;;;;;;;;;13.90;99.90;;;;;;5072784;28;20346;-73
2021/10/18 15:46:19;;;;;;;;;;;13.80;99.90;;;;;;5071527;28;19925;-73
2021/10/18 15:48:50;;;;;;;;;;;13.60;99.90;;;;;;5071765;28;19935;-73
2021/10/18 15:51:22;;;;;;;;;;;13.40;99.90;;;;;;5054555;28;19974;-73
2021/10/18 15:53:49;;;;;;;;;;;13.20;99.90;;;;;;5071168;28;19942;-73
2021/10/18 15:56:17;;;;;;;;;;;12.90;99.90;;;;;;5069856;28;19932;-73